sim
Sign-in with your pilot id or email,
or register
Callsign
Passwort

Schedule Details

Flight Number: DLH2055 (2)
Departure: Berlin Tegel Airport (EDDT) at 06:00
Arrival: Munich Airport (EDDM) at 07:10
Route: Lufthansa Passenger Schedule. Enter filed route here before submitting Pirep.

Weather Information
Getting current METAR information for EDDT 181350Z VRB04KT CAVOK 20/02 Q1028 NOSIG
Getting current METAR information for EDDM 181350Z 09011KT 050V120 CAVOK 19/10 Q1024 NOSIG

Schedule Frequency

Route Map